Time;durP1;ratioP1;P1;durP2;ratioP2;P2;SDS_P1;SDS_P2;PMS_P1;PMS_P2;Temp;Humidity;BMP_temperature;BMP_pressure;BME280_temperature;BME280_humidity;BME280_pressure;Samples;Min_cycle;Max_cycle;Signal;HPM_P1;HPM_P2
2023/10/04 00:01:24;;;;;;;8.18;3.40;;;;;;;14.75;66.48;100492.47;4993686;28;20130;-81
2023/10/04 00:03:51;;;;;;;10.07;4.25;;;;;;;14.73;66.58;100492.59;4973351;28;20105;-78
2023/10/04 00:06:18;;;;;;;8.18;4.32;;;;;;;14.71;66.28;100498.00;4990525;28;20081;-81
2023/10/04 00:08:44;;;;;;;10.38;3.80;;;;;;;14.70;66.74;100501.56;4993873;28;20064;-77
2023/10/04 00:11:15;;;;;;;12.27;4.25;;;;;;;14.68;66.87;100508.78;4972668;28;20070;-78
2023/10/04 00:13:46;;;;;;;7.45;3.90;;;;;;;14.68;66.76;100497.31;4976531;28;20054;-78
2023/10/04 00:16:13;;;;;;;10.90;3.80;;;;;;;14.66;66.79;100508.00;4993747;28;20050;-78
2023/10/04 00:18:39;;;;;;;9.02;3.63;;;;;;;14.66;66.66;100505.34;4992866;28;20157;-77
2023/10/04 00:21:06;;;;;;;6.63;3.63;;;;;;;14.66;66.73;100520.41;4993716;28;20050;-79
2023/10/04 00:23:33;;;;;;;8.30;3.67;;;;;;;14.64;66.83;100512.56;4993502;28;20565;-80
2023/10/04 00:26:00;;;;;;;7.28;3.67;;;;;;;14.63;66.93;100512.66;4993691;28;20046;-79
2023/10/04 00:28:26;;;;;;;7.20;3.65;;;;;;;14.62;66.86;100518.91;4993730;28;20058;-80
2023/10/04 00:30:53;;;;;;;9.45;3.92;;;;;;;14.62;66.92;100518.91;4993481;28;20042;-77
2023/10/04 00:33:19;;;;;;;7.68;3.65;;;;;;;14.61;67.01;100512.75;4993291;28;20050;-77
2023/10/04 00:35:46;;;;;;;7.13;4.00;;;;;;;14.62;66.94;100525.06;4993382;28;20046;-79
2023/10/04 00:38:15;;;;;;;11.02;3.90;;;;;;;14.62;66.93;100525.06;4992716;28;20078;-77
2023/10/04 00:40:43;;;;;;;7.28;3.50;;;;;;;14.62;66.94;100525.06;4975720;28;20054;-76
2023/10/04 00:43:19;;;;;;;9.23;4.05;;;;;;;14.62;66.94;100524.22;4972663;28;20055;-74
2023/10/04 00:45:49;;;;;;;8.13;4.40;;;;;;;14.63;66.90;100531.19;5091821;23;20089;-83
2023/10/04 00:48:23;;;;;;;10.40;3.58;;;;;;;14.62;67.04;100524.22;4993209;28;20054;-83
2023/10/04 00:50:50;;;;;;;8.13;3.85;;;;;;;14.63;66.94;100528.56;4975454;28;20542;-83
2023/10/04 00:53:22;;;;;;;8.02;3.92;;;;;;;14.60;67.08;100526.94;4993330;28;20458;-83
2023/10/04 00:55:52;;;;;;;8.40;3.35;;;;;;;14.61;67.02;100531.28;4993191;28;20081;-83
2023/10/04 00:58:20;;;;;;;8.48;3.70;;;;;;;14.61;66.85;100533.94;4993059;28;20141;-83
2023/10/04 01:00:47;;;;;;;9.20;3.90;;;;;;;14.62;66.87;100535.66;4992665;28;20506;-83
2023/10/04 01:03:24;;;;;;;10.68;3.75;;;;;;;14.62;67.24;100538.31;4992382;28;20051;-83
2023/10/04 01:05:51;;;;;;;9.90;3.67;;;;;;;14.62;67.03;100537.44;4992821;28;20169;-83
2023/10/04 01:08:23;;;;;;;8.45;3.45;;;;;;;14.58;67.75;100529.69;4975469;28;20462;-84
2023/10/04 01:10:51;;;;;;;9.45;3.95;;;;;;;14.63;67.38;100541.78;4992522;28;20050;-83
2023/10/04 01:13:21;;;;;;;7.70;3.58;;;;;;;14.63;67.35;100545.31;4992482;28;20097;-83
2023/10/04 01:15:55;;;;;;;6.72;3.10;;;;;;;14.64;67.79;100549.66;4992488;28;20050;-83
2023/10/04 01:18:23;;;;;;;7.35;3.78;;;;;;;14.68;67.46;100545.00;4992698;28;20104;-84
2023/10/04 01:20:51;;;;;;;6.43;3.05;;;;;;;14.70;67.25;100549.25;4992492;28;20053;-84
2023/10/04 01:23:18;;;;;;;8.82;3.42;;;;;;;14.70;67.22;100543.13;4975050;28;20070;-84
2023/10/04 01:25:46;;;;;;;8.75;3.45;;;;;;;14.70;67.24;100551.91;4992134;28;20047;-84
2023/10/04 01:28:26;;;;;;;8.48;3.53;;;;;;;14.70;67.25;100557.22;4992413;28;20510;-83
2023/10/04 01:30:55;;;;;;;10.55;3.20;;;;;;;14.71;67.60;100558.94;4992658;28;20054;-84
2023/10/04 01:33:22;;;;;;;7.55;3.50;;;;;;;14.73;67.41;100557.03;4992192;28;20046;-84
2023/10/04 01:35:54;;;;;;;6.97;3.50;;;;;;;14.75;67.30;100545.47;4992345;28;20567;-83
2023/10/04 01:38:25;;;;;;;10.77;3.53;;;;;;;14.77;67.30;100552.41;4992071;28;20077;-83
2023/10/04 01:40:53;;;;;;;11.50;3.75;;;;;;;14.79;67.03;100557.63;4986134;28;20058;-84
2023/10/04 01:43:19;;;;;;;10.35;3.65;;;;;;;14.80;67.14;100548.75;4992006;28;20047;-83
2023/10/04 01:45:51;;;;;;;7.60;3.63;;;;;;;14.77;67.28;100559.53;4991935;28;20047;-84
2023/10/04 01:48:19;;;;;;;12.32;3.72;;;;;;;14.80;67.09;100548.75;4992182;28;20141;-82
2023/10/04 01:50:52;;;;;;;9.30;3.60;;;;;;;14.79;67.16;100552.31;4991003;28;20157;-84
2023/10/04 01:53:21;;;;;;;8.82;3.75;;;;;;;14.80;67.03;100543.47;4992115;28;20050;-83
2023/10/04 01:55:47;;;;;;;8.13;3.85;;;;;;;14.79;66.87;100541.72;4991777;28;20046;-84
2023/10/04 01:58:15;;;;;;;7.68;4.10;;;;;;;14.78;66.88;100545.34;4992130;28;20137;-83
2023/10/04 02:00:42;;;;;;;7.68;3.97;;;;;;;14.77;66.73;100546.28;4991768;28;20053;-84
2023/10/04 02:03:09;;;;;;;9.65;3.92;;;;;;;14.75;66.82;100541.03;4974939;28;20082;-83
2023/10/04 02:05:40;;;;;;;8.98;4.10;;;;;;;14.75;66.70;100546.34;4991503;28;20061;-83
2023/10/04 02:08:09;;;;;;;11.63;3.92;;;;;;;14.72;67.06;100547.38;4991921;28;20173;-84
2023/10/04 02:10:36;;;;;;;8.25;3.50;;;;;;;14.72;66.89;100547.38;4991439;28;20102;-83
2023/10/04 02:13:14;;;;;;;7.53;3.65;;;;;;;14.72;66.92;100543.88;4991895;28;20144;-84
2023/10/04 02:15:42;;;;;;;12.23;4.20;;;;;;;14.71;66.92;100542.19;4991544;28;20137;-84
2023/10/04 02:18:08;;;;;;;8.32;3.78;;;;;;;14.69;66.97;100539.63;4991679;28;20046;-83
2023/10/04 02:20:35;;;;;;;8.02;3.80;;;;;;;14.67;66.86;100544.19;4991309;28;20047;-82
2023/10/04 02:23:07;;;;;;;7.80;3.97;;;;;;;14.66;66.98;100547.75;4972595;28;20074;-86
2023/10/04 02:25:33;;;;;;;7.55;3.53;;;;;;;14.65;67.07;100555.81;4972058;28;20051;-83
2023/10/04 02:28:03;;;;;;;9.90;3.63;;;;;;;14.64;67.24;100540.84;4954984;28;20054;-83
2023/10/04 02:30:30;;;;;;;9.45;3.70;;;;;;;14.64;67.08;100546.16;4976680;28;20074;-83
2023/10/04 02:32:57;;;;;;;8.43;3.65;;;;;;;14.63;67.36;100555.91;4991243;28;20061;-85
2023/10/04 02:35:26;;;;;;;8.77;3.55;;;;;;;14.63;67.25;100544.44;4991398;28;20058;-82
2023/10/04 02:38:00;;;;;;;9.32;3.53;;;;;;;14.62;67.58;100554.22;4991422;28;20110;-83
2023/10/04 02:40:28;;;;;;;9.07;3.28;;;;;;;14.63;67.52;100555.91;4991076;28;20053;-84
2023/10/04 02:42:55;;;;;;;13.43;3.80;;;;;;;14.66;67.61;100557.53;4991044;28;20046;-83
2023/10/04 02:45:24;;;;;;;6.57;3.53;;;;;;;14.66;67.71;100558.34;4990939;28;20062;-84
2023/10/04 02:47:52;;;;;;;8.02;3.38;;;;;;;14.68;67.77;100558.25;4974280;28;20619;-84
2023/10/04 02:50:21;;;;;;;9.85;3.45;;;;;;;14.69;67.82;100558.16;4991710;28;20116;-83
2023/10/04 02:52:50;;;;;;;9.80;3.63;;;;;;;14.71;67.69;100561.59;4991070;28;20112;-84
2023/10/04 02:55:17;;;;;;;7.93;3.47;;;;;;;14.72;67.55;100554.47;4974110;28;20137;-84
2023/10/04 02:57:51;;;;;;;9.32;3.28;;;;;;;14.70;67.93;100549.25;4991186;28;20050;-84
2023/10/04 03:00:20;;;;;;;12.65;3.67;;;;;;;14.74;67.54;100555.25;4991480;28;20090;-83
2023/10/04 03:02:49;;;;;;;6.05;3.13;;;;;;;14.75;67.56;100550.78;4994812;28;20073;-85
2023/10/04 03:05:20;;;;;;;5.82;3.20;;;;;;;14.75;67.41;100546.34;4977718;28;20085;-84
2023/10/04 03:07:50;;;;;;;7.55;3.47;;;;;;;14.75;67.32;100551.66;4995233;28;20109;-83
2023/10/04 03:10:24;;;;;;;7.63;3.13;;;;;;;14.76;67.67;100552.50;4994891;28;20060;-84
2023/10/04 03:12:56;;;;;;;7.95;3.20;;;;;;;14.75;67.91;100554.28;4994871;28;20081;-84
2023/10/04 03:15:23;;;;;;;9.35;3.67;;;;;;;14.78;67.54;100555.94;4977686;28;20050;-83
2023/10/04 03:17:52;;;;;;;9.85;3.75;;;;;;;14.78;67.43;100550.63;4994946;28;20050;-84
2023/10/04 03:20:23;;;;;;;11.70;3.38;;;;;;;14.77;67.80;100548.94;4994986;28;20051;-83
2023/10/04 03:22:55;;;;;;;10.25;3.00;;;;;;;14.79;67.83;100547.03;4994235;28;20056;-83
2023/10/04 03:25:26;;;;;;;7.75;2.90;;;;;;;14.79;67.74;100558.50;4994783;28;20142;-83
2023/10/04 03:27:54;;;;;;;8.20;3.08;;;;;;;14.81;67.75;100559.22;4994875;28;20046;-84
2023/10/04 03:30:20;;;;;;;6.85;3.00;;;;;;;14.82;67.51;100558.31;4994679;28;20093;-83
2023/10/04 03:32:52;;;;;;;9.55;3.40;;;;;;;14.83;67.56;100565.31;4994514;28;20081;-83
2023/10/04 03:35:26;;;;;;;12.30;3.20;;;;;;;14.84;67.44;100558.22;4976901;28;20053;-84
2023/10/04 03:38:01;;;;;;;8.13;3.35;;;;;;;14.83;67.56;100564.44;4977376;28;20054;-84
2023/10/04 03:40:34;;;;;;;8.45;2.97;;;;;;;14.84;67.71;100577.59;4994645;28;20502;-83
2023/10/04 03:43:04;;;;;;;9.23;2.92;;;;;;;14.84;67.65;100572.31;4976986;28;20121;-85
2023/10/04 03:45:34;;;;;;;8.55;3.47;;;;;;;14.85;67.62;100576.66;4994031;28;20391;-84
2023/10/04 03:48:01;;;;;;;10.05;3.40;;;;;;;14.85;67.47;100568.69;4994324;28;20108;-84
2023/10/04 03:50:28;;;;;;;7.30;2.83;;;;;;;14.86;67.63;100577.50;4994470;28;20061;-83
2023/10/04 03:52:58;;;;;;;6.38;2.90;;;;;;;14.87;67.70;100578.38;4994133;28;20105;-82
2023/10/04 03:55:25;;;;;;;10.10;3.05;;;;;;;14.86;67.74;100582.81;4993887;28;20054;-83
2023/10/04 03:57:54;;;;;;;6.93;2.55;;;;;;;14.87;67.78;100592.47;4993978;28;20522;-84
2023/10/04 04:00:23;;;;;;;8.30;3.17;;;;;;;14.88;67.54;100588.84;4994088;28;20054;-84
2023/10/04 04:02:50;;;;;;;8.15;3.08;;;;;;;14.88;67.66;100593.31;4994185;28;20050;-83
2023/10/04 04:05:22;;;;;;;9.20;3.03;;;;;;;14.88;67.56;100588.03;4993367;28;20050;-84
2023/10/04 04:07:50;;;;;;;14.57;3.65;;;;;;;14.88;67.43;100596.81;4994074;28;20109;-83
2023/10/04 04:10:18;;;;;;;11.50;3.13;;;;;;;14.87;67.50;100594.28;4994473;28;20078;-84
2023/10/04 04:12:46;;;;;;;7.70;3.30;;;;;;;14.85;67.42;100587.25;4993016;28;20047;-84
2023/10/04 04:15:20;;;;;;;9.75;3.55;;;;;;;14.84;67.44;100582.06;4993373;28;20129;-84
2023/10/04 04:17:48;;;;;;;7.10;2.90;;;;;;;14.83;67.35;100583.00;4976628;28;20406;-83
2023/10/04 04:20:16;;;;;;;11.60;2.85;;;;;;;14.82;67.31;100581.31;4993822;28;20089;-85
2023/10/04 04:22:50;;;;;;;6.78;2.85;;;;;;;14.78;67.65;100582.44;4993778;28;20050;-83
2023/10/04 04:25:19;;;;;;;10.20;3.22;;;;;;;14.79;67.15;100589.44;4992978;28;20514;-84
2023/10/04 04:27:47;;;;;;;11.30;3.13;;;;;;;14.75;67.13;100586.09;4993450;28;20054;-84
2023/10/04 04:30:19;;;;;;;12.90;3.13;;;;;;;14.73;67.41;100590.66;4976373;28;20076;-83
2023/10/04 04:32:53;;;;;;;9.30;2.67;;;;;;;14.70;67.46;100583.72;4976364;28;20065;-84
2023/10/04 04:38:17;;;;;;;10.23;3.13;;;;;;;14.66;67.71;100597.25;4993063;28;20050;-83
2023/10/04 04:40:47;;;;;;;8.05;2.78;;;;;;;14.64;67.49;100578.81;4993562;28;20046;-84
2023/10/04 04:45:51;;;;;;;10.25;3.15;;;;;;;14.61;67.61;100597.53;4993123;28;20096;-83
2023/10/04 04:48:23;;;;;;;6.82;2.70;;;;;;;14.58;67.46;100595.91;4993379;28;20058;-83
2023/10/04 04:50:54;;;;;;;12.27;3.43;;;;;;;14.56;68.04;100594.31;4993379;28;20051;-83
2023/10/04 04:53:27;;;;;;;8.10;2.90;;;;;;;14.56;67.53;100591.66;4993083;28;20054;-83
2023/10/04 04:55:54;;;;;;;8.85;3.30;;;;;;;14.55;67.71;100603.22;4993087;28;20086;-83
2023/10/04 04:58:22;;;;;;;9.32;3.05;;;;;;;14.53;67.60;100598.00;4975829;28;20046;-85
2023/10/04 05:00:50;;;;;;;13.15;3.70;;;;;;;14.52;67.58;100592.78;4975256;28;20050;-83
2023/10/04 05:03:17;;;;;;;7.55;2.90;;;;;;;14.50;67.71;100600.00;4993146;28;20066;-83
2023/10/04 05:05:44;;;;;;;9.25;2.70;;;;;;;14.48;67.93;100597.44;4992877;28;20050;-85
2023/10/04 05:08:11;;;;;;;10.40;2.92;;;;;;;14.46;67.68;100609.91;4993086;28;20046;-84
2023/10/04 05:10:38;;;;;;;8.10;3.22;;;;;;;14.46;68.00;100604.59;4992546;28;20062;-83
2023/10/04 05:13:09;;;;;;;10.07;3.10;;;;;;;14.45;67.90;100603.78;4992703;28;20042;-84
2023/10/04 05:15:38;;;;;;;8.73;3.40;;;;;;;14.44;67.82;100611.81;4992654;28;20414;-84
2023/10/04 05:18:05;;;;;;;8.52;3.65;;;;;;;14.43;68.15;100602.16;4993039;28;20453;-83
2023/10/04 05:20:33;;;;;;;10.45;3.05;;;;;;;14.42;67.74;100603.06;4992269;28;20049;-83
2023/10/04 05:23:00;;;;;;;9.73;3.45;;;;;;;14.40;68.19;100600.56;4975217;28;20043;-83
2023/10/04 05:25:27;;;;;;;10.35;3.10;;;;;;;14.40;68.07;100607.63;4974775;28;20543;-83
2023/10/04 05:28:04;;;;;;;9.90;3.08;;;;;;;14.37;68.46;100606.03;4975018;28;20051;-82
2023/10/04 05:30:51;;;;;;;8.90;3.20;;;;;;;14.36;68.69;100606.09;4992149;28;20519;-83
2023/10/04 05:33:20;;;;;;;10.60;3.00;;;;;;;14.39;68.28;100603.28;4992543;28;20105;-83
2023/10/04 05:35:52;;;;;;;14.63;3.05;;;;;;;14.37;68.21;100600.72;4992132;28;20650;-83
2023/10/04 05:38:20;;;;;;;4.88;2.00;;;;;;;14.38;68.11;100604.19;4974921;28;20061;-83
2023/10/04 05:40:47;;;;;;;6.85;2.50;;;;;;;14.38;68.17;100605.06;4991895;28;20114;-83
2023/10/04 05:43:14;;;;;;;7.70;2.70;;;;;;;14.37;68.07;100605.16;4992042;28;20065;-80
2023/10/04 05:45:42;;;;;;;10.52;3.60;;;;;;;14.36;68.13;100603.47;4991886;28;20117;-83
2023/10/04 05:48:10;;;;;;;8.95;3.47;;;;;;;14.35;68.37;100592.00;4992070;28;20046;-81
2023/10/04 05:50:37;;;;;;;9.57;3.70;;;;;;;14.34;68.34;100590.31;4991689;28;20501;-81
2023/10/04 05:53:06;;;;;;;11.32;3.88;;;;;;;14.35;68.52;100583.22;4991577;28;20129;-81
2023/10/04 05:55:37;;;;;;;10.32;3.20;;;;;;;14.34;68.37;100590.31;4991877;28;20058;-81
2023/10/04 05:58:08;;;;;;;10.50;3.03;;;;;;;14.35;68.37;100597.28;4991845;28;20136;-81
2023/10/04 06:00:42;;;;;;;8.65;2.90;;;;;;;14.35;68.54;100599.94;4991734;28;20522;-83
2023/10/04 06:03:11;;;;;;;12.45;3.30;;;;;;;14.35;68.62;100607.88;4984905;28;20057;-81
2023/10/04 06:05:42;;;;;;;6.53;3.03;;;;;;;14.34;68.72;100614.13;4991585;28;20050;-82
2023/10/04 06:08:18;;;;;;;11.40;3.60;;;;;;;14.34;68.67;100622.09;4991769;28;20057;-82
2023/10/04 06:10:47;;;;;;;12.45;3.47;;;;;;;14.33;68.53;100631.81;4991807;28;20104;-82
2023/10/04 06:13:17;;;;;;;10.98;3.35;;;;;;;14.34;68.45;100640.63;4991235;28;20050;-81
2023/10/04 06:15:48;;;;;;;13.82;3.25;;;;;;;14.32;69.07;100647.81;4991419;28;20050;-83
2023/10/04 06:18:19;;;;;;;8.23;2.67;;;;;;;14.33;68.70;100650.34;4991774;28;20057;-82
2023/10/04 06:20:46;;;;;;;9.77;3.10;;;;;;;14.35;68.78;100660.03;4991832;28;20062;-83
2023/10/04 06:23:16;;;;;;;13.48;3.30;;;;;;;14.34;69.00;100667.09;4991240;28;20042;-82
2023/10/04 06:25:48;;;;;;;7.65;3.47;;;;;;;14.35;69.39;100663.50;4991565;28;20058;-82
2023/10/04 06:28:15;;;;;;;12.15;4.20;;;;;;;14.39;69.02;100666.84;4991503;28;20120;-81
2023/10/04 06:30:48;;;;;;;8.68;3.33;;;;;;;14.41;69.17;100671.13;4991735;28;20518;-82
2023/10/04 06:33:15;;;;;;;10.00;3.80;;;;;;;14.45;69.02;100683.25;4991348;28;20047;-82
2023/10/04 06:35:43;;;;;;;8.63;3.17;;;;;;;14.47;69.01;100688.44;4993220;28;20054;-81
2023/10/04 06:38:12;;;;;;;8.88;3.33;;;;;;;14.49;69.24;100694.50;4997922;28;20529;-81
2023/10/04 06:40:40;;;;;;;10.15;3.38;;;;;;;14.52;69.04;100701.41;4997946;28;20046;-82
2023/10/04 06:43:10;;;;;;;10.35;3.35;;;;;;;14.55;68.79;100719.78;4997606;28;20494;-82
2023/10/04 06:45:39;;;;;;;9.90;3.13;;;;;;;14.57;69.00;100715.22;5054236;23;20138;-74
2023/10/04 06:48:07;;;;;;;8.60;3.20;;;;;;;14.59;68.84;100722.16;4940552;29;20043;-74
2023/10/04 06:50:43;;;;;;;11.95;3.65;;;;;;;14.59;68.98;100711.56;4939934;29;20056;-75
2023/10/04 06:53:10;;;;;;;11.00;3.40;;;;;;;14.61;68.77;100713.28;4954577;29;20047;-74
2023/10/04 06:55:38;;;;;;;24.75;3.80;;;;;;;14.61;68.79;100708.81;4940204;29;20111;-75
2023/10/04 06:58:08;;;;;;;13.55;3.15;;;;;;;14.62;69.00;100713.19;4939988;29;20060;-75
2023/10/04 07:00:38;;;;;;;10.52;3.72;;;;;;;14.63;68.85;100711.38;4938372;29;20047;-74
2023/10/04 07:03:05;;;;;;;10.65;3.63;;;;;;;14.64;68.94;100713.94;4938737;29;20048;-75
2023/10/04 07:05:35;;;;;;;10.88;4.05;;;;;;;14.65;69.13;100723.59;4939813;29;20080;-75
2023/10/04 07:08:08;;;;;;;9.70;3.40;;;;;;;14.67;69.14;100718.19;4923295;29;20047;-75
2023/10/04 07:10:36;;;;;;;;;;;;;;;14.67;69.30;100721.72;4955142;29;20059;-75
2023/10/04 07:13:03;;;;;;;11.38;4.13;;;;;;;14.74;68.64;100724.84;4939251;29;20363;-75
2023/10/04 07:15:35;;;;;;;11.18;3.40;;;;;;;14.74;68.82;100722.22;4939665;29;20134;-75
2023/10/04 07:18:07;;;;;;;10.50;3.60;;;;;;;14.76;68.88;100730.06;4939943;29;20051;-75
2023/10/04 07:20:36;;;;;;;13.00;3.92;;;;;;;14.77;69.03;100727.34;4923160;29;20050;-75
2023/10/04 07:23:03;;;;;;;10.00;3.42;;;;;;;14.78;69.03;100742.31;4954343;29;20103;-75
2023/10/04 07:25:34;;;;;;;10.63;3.65;;;;;;;14.80;69.24;100727.16;4939223;29;20064;-75
2023/10/04 07:28:03;;;;;;;14.60;3.97;;;;;;;14.85;69.24;100726.91;4939500;29;20055;-75
2023/10/04 07:30:31;;;;;;;13.27;4.47;;;;;;;14.88;69.17;100731.16;4939356;29;20051;-75
2023/10/04 07:32:59;;;;;;;14.07;3.90;;;;;;;14.91;69.17;100733.66;4939191;29;20063;-75
2023/10/04 07:35:27;;;;;;;11.63;4.00;;;;;;;14.95;69.30;100724.56;4939181;29;20547;-75
2023/10/04 07:37:55;;;;;;;10.52;3.92;;;;;;;14.97;69.32;100728.81;4939542;29;20056;-75
2023/10/04 07:40:27;;;;;;;13.43;4.03;;;;;;;15.02;69.27;100733.00;4920506;29;20048;-74
2023/10/04 07:42:54;;;;;;;9.95;3.25;;;;;;;15.06;69.14;100731.88;4903588;29;20055;-74
2023/10/04 07:45:22;;;;;;;12.07;4.03;;;;;;;15.11;69.26;100733.28;4920084;29;20104;-76
2023/10/04 07:47:50;;;;;;;12.13;4.43;;;;;;;15.15;69.33;100733.97;4917514;29;20092;-75
2023/10/04 07:50:25;;;;;;;12.20;3.83;;;;;;;15.20;69.32;100731.00;4933662;29;20757;-75
2023/10/04 07:52:54;;;;;;;13.27;3.63;;;;;;;15.25;69.42;100739.53;4936406;29;20091;-75
2023/10/04 07:55:24;;;;;;;10.32;3.67;;;;;;;15.31;69.35;100743.63;4936106;29;20055;-75
2023/10/04 07:58:02;;;;;;;16.40;3.65;;;;;;;15.34;69.07;100746.09;4936176;29;20056;-75
2023/10/04 08:00:30;;;;;;;8.05;3.28;;;;;;;15.39;69.12;100746.66;4935508;29;20500;-75
2023/10/04 08:02:57;;;;;;;7.85;3.15;;;;;;;15.44;69.00;100749.03;4936134;29;20079;-75
2023/10/04 08:05:26;;;;;;;8.93;3.92;;;;;;;15.47;68.97;100757.66;4935943;29;20119;-75
2023/10/04 08:07:55;;;;;;;10.23;3.58;;;;;;;15.53;69.33;100756.44;4936058;29;20056;-75
2023/10/04 08:10:25;;;;;;;11.32;3.10;;;;;;;15.58;69.05;100759.63;4935732;29;20048;-75
2023/10/04 08:12:54;;;;;;;10.60;3.72;;;;;;;15.63;69.00;100764.69;4935719;29;20492;-75
2023/10/04 08:15:25;;;;;;;10.60;3.78;;;;;;;15.69;69.00;100758.97;4935894;29;20074;-75
2023/10/04 08:17:54;;;;;;;10.40;2.88;;;;;;;15.73;69.07;100755.19;4935813;29;20055;-75
2023/10/04 08:20:22;;;;;;;12.23;3.47;;;;;;;15.79;68.80;100758.38;4935457;29;20048;-74
2023/10/04 08:22:48;;;;;;;15.77;4.28;;;;;;;15.84;68.54;100766.91;4935478;29;20087;-75
2023/10/04 08:25:17;;;;;;;12.18;4.03;;;;;;;15.88;68.45;100768.41;4935676;29;20080;-75
2023/10/04 08:27:45;;;;;;;10.23;3.28;;;;;;;15.93;68.40;100754.88;4935929;29;20059;-75
2023/10/04 08:30:13;;;;;;;12.13;3.67;;;;;;;15.97;68.45;100762.59;4950399;28;20142;-75
2023/10/04 08:32:41;;;;;;;11.57;3.90;;;;;;;16.03;68.25;100761.31;4935114;29;20055;-76
2023/10/04 08:35:21;;;;;;;10.70;3.83;;;;;;;16.08;68.33;100766.34;4935299;29;20051;-75
2023/10/04 08:37:48;;;;;;;14.82;3.85;;;;;;;16.13;68.00;100766.91;4935545;29;20116;-74
2023/10/04 08:40:18;;;;;;;13.73;3.70;;;;;;;16.18;68.12;100762.13;4935563;29;20107;-75
2023/10/04 08:42:47;;;;;;;10.30;3.53;;;;;;;16.22;68.16;100763.63;4934996;29;20115;-74
2023/10/04 08:45:15;;;;;;;12.38;3.45;;;;;;;16.31;68.22;100764.00;4935140;29;20060;-75
2023/10/04 08:47:47;;;;;;;10.15;3.42;;;;;;;16.35;68.37;100776.13;4935406;29;20143;-75
2023/10/04 08:50:19;;;;;;;12.13;4.10;;;;;;;16.42;68.30;100778.28;4935508;29;20055;-74
2023/10/04 08:52:48;;;;;;;14.55;4.47;;;;;;;16.49;68.02;100776.06;4934731;29;20135;-75
2023/10/04 08:55:20;;;;;;;12.32;3.88;;;;;;;16.55;67.83;100788.09;4934873;29;20066;-75
2023/10/04 08:57:48;;;;;;;10.30;3.45;;;;;;;16.61;67.92;100781.53;4933828;29;20488;-75
2023/10/04 09:00:15;;;;;;;14.13;3.15;;;;;;;16.67;68.22;100789.09;4931473;29;20075;-74
2023/10/04 09:02:58;;;;;;;9.93;3.67;;;;;;;16.73;67.80;100772.75;4935284;29;20055;-75
2023/10/04 09:05:28;;;;;;;11.88;3.67;;;;;;;16.81;67.66;100772.22;4934737;29;20059;-74
2023/10/04 09:07:55;;;;;;;16.73;4.45;;;;;;;16.87;67.57;100761.19;4918111;29;20492;-74
2023/10/04 09:10:24;;;;;;;11.27;3.45;;;;;;;16.94;67.47;100774.94;4934432;29;20048;-75
2023/10/04 09:12:50;;;;;;;13.27;4.32;;;;;;;17.01;67.42;100767.38;4934846;29;20044;-75
2023/10/04 09:15:25;;;;;;;12.10;3.70;;;;;;;17.09;67.36;100774.88;4934817;29;20047;-74
2023/10/04 09:17:58;;;;;;;15.85;4.15;;;;;;;17.16;67.02;100770.84;4934957;29;20080;-76
2023/10/04 09:20:29;;;;;;;12.57;3.72;;;;;;;17.24;66.68;100767.63;4934439;29;20059;-75
2023/10/04 09:22:59;;;;;;;11.30;3.38;;;;;;;17.32;66.96;100771.47;4934838;29;20064;-76
2023/10/04 09:25:40;;;;;;;10.98;3.58;;;;;;;17.37;66.28;100767.63;4934123;29;20103;-76
2023/10/04 09:28:11;;;;;;;9.90;3.63;;;;;;;17.48;66.43;100765.06;4935009;29;20135;-76
2023/10/04 09:30:38;;;;;;;12.10;3.90;;;;;;;17.54;66.33;100772.63;4934393;29;20119;-77
2023/10/04 09:33:20;;;;;;;11.55;3.78;;;;;;;17.60;65.61;100771.34;4934732;29;20060;-76
2023/10/04 09:35:47;;;;;;;9.98;3.40;;;;;;;17.67;65.68;100772.63;4934540;29;20087;-76
2023/10/04 09:38:15;;;;;;;14.68;4.32;;;;;;;17.71;65.13;100773.25;4934595;29;20503;-76
2023/10/04 09:40:59;;;;;;;13.85;4.65;;;;;;;17.72;64.80;100777.63;4934131;29;20043;-76
2023/10/04 09:43:35;;;;;;;12.25;4.35;;;;;;;17.78;64.54;100779.84;4917668;29;20515;-76
2023/10/04 09:46:10;;;;;;;14.68;3.63;;;;;;;17.87;65.55;100780.16;4934520;29;20054;-76
2023/10/04 09:48:41;;;;;;;7.85;3.63;;;;;;;17.95;66.02;100783.13;4934496;29;20062;-76
2023/10/04 09:51:09;;;;;;;9.85;3.88;;;;;;;18.04;65.73;100778.91;4934329;29;20060;-77
2023/10/04 09:53:40;;;;;;;9.77;3.28;;;;;;;18.14;65.95;100782.66;4934472;29;20099;-75
2023/10/04 09:56:11;;;;;;;9.85;3.50;;;;;;;18.26;65.42;100772.06;4934224;29;20059;-76
2023/10/04 09:58:48;;;;;;;17.58;3.70;;;;;;;18.34;64.60;100773.22;4934474;29;20052;-76
2023/10/04 10:01:19;;;;;;;12.75;4.13;;;;;;;18.47;64.85;100778.47;4917099;29;20048;-76
2023/10/04 10:03:54;;;;;;;14.57;3.88;;;;;;;18.58;63.94;100780.34;4934289;29;20048;-76
2023/10/04 10:06:23;;;;;;;9.50;3.72;;;;;;;18.69;64.44;100773.38;4933993;29;20052;-76
2023/10/04 10:09:00;;;;;;;13.38;3.70;;;;;;;18.77;63.40;100770.13;4934089;29;20052;-77
2023/10/04 10:11:27;;;;;;;13.18;3.53;;;;;;;18.92;64.49;100778.78;4932860;29;20047;-77
2023/10/04 10:13:55;;;;;;;11.18;3.45;;;;;;;19.02;64.33;100777.94;4933772;29;20111;-76
2023/10/04 10:16:23;;;;;;;6.57;3.40;;;;;;;19.16;63.61;100784.06;4933822;29;20053;-77
2023/10/04 10:18:52;;;;;;;10.93;3.65;;;;;;;19.26;63.33;100793.06;4933830;29;20474;-77
2023/10/04 10:21:19;;;;;;;11.27;3.70;;;;;;;19.36;63.08;100801.22;4900930;29;20551;-76
2023/10/04 10:24:08;;;;;;;12.02;3.45;;;;;;;19.40;61.11;100799.16;4933424;29;20047;-76
2023/10/04 10:26:35;;;;;;;10.88;3.88;;;;;;;19.51;61.32;100798.31;4916586;29;20134;-77
2023/10/04 10:29:03;;;;;;;13.93;4.32;;;;;;;19.54;60.74;100795.41;4933905;29;20051;-76
2023/10/04 10:31:31;;;;;;;10.15;3.78;;;;;;;19.56;61.39;100781.94;4933567;29;20134;-76
2023/10/04 10:34:02;;;;;;;11.02;3.70;;;;;;;19.59;60.84;100787.03;4933270;29;20051;-77
2023/10/04 10:36:32;;;;;;;13.75;3.95;;;;;;;19.62;61.16;100776.94;4933660;29;20048;-76
2023/10/04 10:38:59;;;;;;;8.32;3.90;;;;;;;19.69;61.08;100792.50;4933737;29;20054;-76
2023/10/04 10:41:32;;;;;;;9.15;3.40;;;;;;;19.73;59.81;100780.59;4933306;29;20138;-76
2023/10/04 10:44:19;;;;;;;11.05;3.55;;;;;;;19.76;59.89;100786.53;4933318;29;20055;-76
2023/10/04 10:46:55;;;;;;;16.58;4.00;;;;;;;19.82;59.29;100784.34;4933559;29;20146;-77
2023/10/04 10:49:40;;;;;;;12.25;4.00;;;;;;;19.84;58.69;100779.75;4933626;29;20090;-74
2023/10/04 10:52:19;;;;;;;13.15;4.00;;;;;;;19.88;58.61;100789.19;4933312;29;20111;-76
2023/10/04 10:54:46;;;;;;;13.02;4.10;;;;;;;19.91;59.32;100788.94;4933409;29;20052;-77
2023/10/04 10:57:13;;;;;;;8.50;3.72;;;;;;;19.92;59.50;100775.47;4933549;29;20056;-76
2023/10/04 10:59:40;;;;;;;13.88;3.55;;;;;;;19.97;59.71;100771.56;4933607;29;20047;-76
2023/10/04 11:02:07;;;;;;;12.73;4.25;;;;;;;20.03;59.37;100776.44;4933359;29;20573;-77
2023/10/04 11:04:34;;;;;;;11.07;4.45;;;;;;;20.08;58.38;100779.63;4933124;29;20059;-76
2023/10/04 11:07:00;;;;;;;10.65;4.20;;;;;;;20.13;58.90;100780.09;4933211;29;20131;-76
2023/10/04 11:09:30;;;;;;;12.98;4.10;;;;;;;20.20;58.76;100771.56;4933384;29;20459;-76
2023/10/04 11:12:12;;;;;;;14.68;4.45;;;;;;;20.29;59.26;100765.44;4933488;29;20094;-77
2023/10/04 11:14:40;;;;;;;7.90;3.35;;;;;;;20.37;58.25;100756.81;4932907;29;20142;-76
2023/10/04 11:17:06;;;;;;;13.23;4.30;;;;;;;20.46;58.48;100773.91;4932983;29;20058;-76
2023/10/04 11:19:34;;;;;;;11.25;4.65;;;;;;;20.52;57.88;100768.06;4932795;29;20154;-77
2023/10/04 11:22:02;;;;;;;8.95;4.07;;;;;;;20.56;57.31;100769.50;4933265;29;20052;-76
2023/10/04 11:24:34;;;;;;;10.40;4.22;;;;;;;20.57;56.61;100764.00;4935139;29;20071;-76
2023/10/04 11:27:01;;;;;;;14.88;4.95;;;;;;;20.55;56.10;100767.78;4935981;29;20488;-76
2023/10/04 11:29:29;;;;;;;11.15;4.35;;;;;;;20.48;56.03;100759.44;4936431;29;20642;-76
2023/10/04 11:31:56;;;;;;;12.73;4.95;;;;;;;20.43;56.04;100754.47;4936309;29;20048;-76
2023/10/04 11:34:23;;;;;;;11.30;4.03;;;;;;;20.37;56.57;100762.16;4935858;29;20067;-77
2023/10/04 11:36:50;;;;;;;12.63;4.30;;;;;;;20.34;57.04;100757.91;4936371;29;20115;-75
2023/10/04 11:39:19;;;;;;;10.18;4.35;;;;;;;20.33;57.03;100756.19;4936652;29;20150;-75